الصفحة الرئيسية
METAR-TAF:

METAR-TAF

مطار :

ناساو, البهاما

دائرة عرض: 25-03N, خط طول: 077-28W, ارتفاع: 3 متر

مراقبة الطقس الحالي

تاريخ ووقت الإصدار 48 دقيقة قبل الساعة 15:00UTC
ريح 3 عقدة من الشرق/الجنوب الشرقي
درجة الحرارة 27°درجة مئوية
الرطوبة 74%
ضغط 1019 hPa
الرؤية 10 كم أو أكثر
غيوم قليلة على ارتفاع 2000 قدم
غيوم مفككة على ارتفاع 22000 قدم

METAR: MYNN 191500Z 11003KT 9999 FEW020 BKN220 27/22 A3010

زمن: 10:48 (15:48 UTC)

توقعات

تاريخ ووقت الإصدار 4ساعات و 48 دقيقة قبل الساعة 11:00UTC
التوقعات صالحة من19 الساعة 12 UTC إلى 20 الساعة 12 UTC
ريح 4 عقدة من الشرق
الرؤية 10 كم أو أكثر
غيوم متفرقة على ارتفاع 2500 قدم

TAF: MYNN 191100Z 1912/2012 08004KT 9999 SCT025

أرصاد الطقس والتوقعات من أكثر من 4000 مطار (تقارير الطقس للمطار METAR والتنبؤ بالطقس بالمطارTAF).

المحطات المتاحة هي النقط الصفراء والحمراء على الخريطة.

حرك المؤشر فوق النقطة لمعرفة اسم المحطة.

ثم انقر لمعرفة أرصاد وتوقعات الطقس.

لتغيير الخارطة: اضغط على الأزرار الخضراء مع رمز الصليب الأسود للتكبير. على الزر الأخضر مع شرطة للتصغير، أو على الأسهم الخضراء للخرائط المجاورة.


METAR-TAF: